Time;durP1;ratioP1;P1;durP2;ratioP2;P2;SDS_P1;SDS_P2;PMS_P1;PMS_P2;Temp;Humidity;BMP_temperature;BMP_pressure;BME280_temperature;BME280_humidity;BME280_pressure;Samples;Min_cycle;Max_cycle;Signal;HPM_P1;HPM_P2
2022/04/24 00:01:45;;;;;;;14.85;10.45;;;;;;;13.41;49.63;100202.31;5040571;28;20041;-80
2022/04/24 00:04:11;;;;;;;15.90;10.18;;;;;;;13.38;49.60;100203.16;5042235;28;20034;-80
2022/04/24 00:06:36;;;;;;;15.05;10.10;;;;;;;13.33;49.90;100199.66;5036639;28;20284;-80
2022/04/24 00:09:02;;;;;;;16.33;10.50;;;;;;;13.29;50.00;100198.75;5042756;28;20021;-80
2022/04/24 00:11:29;;;;;;;14.70;10.25;;;;;;;13.25;49.88;100189.16;5037818;28;20219;-80
2022/04/24 00:13:55;;;;;;;14.60;10.52;;;;;;;13.18;50.02;100193.50;5040820;28;20041;-80
2022/04/24 00:16:20;;;;;;;16.67;10.73;;;;;;;13.12;49.90;100187.38;5042295;28;20029;-80
2022/04/24 00:18:45;;;;;;;15.45;10.55;;;;;;;13.09;50.33;100188.25;5042828;28;20064;-80
2022/04/24 00:21:11;;;;;;;17.20;11.07;;;;;;;13.05;50.54;100191.75;5042345;28;20022;-80
2022/04/24 00:23:36;;;;;;;15.77;10.73;;;;;;;13.00;50.92;100186.47;5041090;28;20080;-80
2022/04/24 00:26:01;;;;;;;16.02;10.05;;;;;;;12.95;50.31;100183.00;5042480;28;20041;-80
2022/04/24 00:28:27;;;;;;;14.48;10.85;;;;;;;12.92;50.56;100182.97;5042513;28;20026;-86
2022/04/24 00:30:52;;;;;;;16.58;10.85;;;;;;;12.87;51.00;100175.13;5042482;28;20268;-85
2022/04/24 00:33:18;;;;;;;15.93;11.00;;;;;;;12.83;50.82;100178.59;5042330;28;20026;-86
2022/04/24 00:35:44;;;;;;;15.55;10.38;;;;;;;12.80;50.91;100180.31;5042336;28;20028;-86
2022/04/24 00:38:09;;;;;;;16.65;10.95;;;;;;;12.73;51.06;100175.94;5042439;28;20168;-86
2022/04/24 00:40:34;;;;;;;15.40;10.50;;;;;;;12.73;51.52;100178.53;5042480;28;20282;-85
2022/04/24 00:43:00;;;;;;;15.27;10.13;;;;;;;12.66;51.61;100173.28;5042412;28;20045;-86
2022/04/24 00:45:25;;;;;;;16.73;11.13;;;;;;;12.59;51.98;100174.13;5041113;28;20025;-85
2022/04/24 00:47:50;;;;;;;15.68;9.98;;;;;;;12.51;52.06;100168.88;5042392;28;20052;-86
2022/04/24 00:50:17;;;;;;;15.50;10.98;;;;;;;12.45;52.12;100173.19;5042166;28;20025;-86
2022/04/24 00:52:43;;;;;;;15.55;10.85;;;;;;;12.44;52.11;100179.28;5040940;28;20033;-86
2022/04/24 00:55:09;;;;;;;15.95;11.20;;;;;;;12.40;52.02;100174.91;5042338;28;20034;-85
2022/04/24 00:57:34;;;;;;;15.80;11.02;;;;;;;12.32;52.63;100169.63;5042263;28;20243;-80
2022/04/24 01:00:00;;;;;;;14.73;10.88;;;;;;;12.27;52.57;100168.75;5042322;28;20025;-80
2022/04/24 01:02:25;;;;;;;15.60;10.68;;;;;;;12.24;52.54;100173.94;5042224;28;20034;-80
2022/04/24 01:04:51;;;;;;;14.75;10.63;;;;;;;12.20;52.50;100173.06;5039059;28;20021;-80
2022/04/24 01:07:16;;;;;;;16.35;11.02;;;;;;;12.16;52.88;100173.91;5030981;28;20228;-80
2022/04/24 01:09:42;;;;;;;13.50;10.02;;;;;;;12.11;53.43;100179.09;5041976;28;20048;-80
2022/04/24 01:12:08;;;;;;;16.15;10.88;;;;;;;12.03;53.21;100175.56;5042171;28;20307;-80
2022/04/24 01:14:34;;;;;;;17.23;10.88;;;;;;;11.97;53.61;100172.91;5042085;28;20272;-80
2022/04/24 01:17:01;;;;;;;14.50;10.45;;;;;;;11.91;53.92;100171.09;5040982;28;20067;-80
2022/04/24 01:19:27;;;;;;;14.20;10.20;;;;;;;11.88;53.83;100176.31;5042134;28;20029;-80
2022/04/24 01:21:54;;;;;;;15.93;10.43;;;;;;;11.81;54.23;100180.59;5042124;28;20047;-80
2022/04/24 01:24:22;;;;;;;16.25;10.60;;;;;;;11.79;53.98;100176.25;5042061;28;20292;-80
2022/04/24 01:26:47;;;;;;;14.57;10.10;;;;;;;11.79;53.86;100176.25;5041125;28;20025;-80
2022/04/24 01:29:14;;;;;;;14.57;10.20;;;;;;;11.77;53.98;100183.16;5042351;28;20075;-80
2022/04/24 01:31:40;;;;;;;15.38;10.32;;;;;;;11.71;54.27;100180.50;5044723;28;20028;-80
2022/04/24 01:34:06;;;;;;;14.65;10.43;;;;;;;11.68;54.70;100185.72;5045941;28;20025;-80
2022/04/24 01:36:31;;;;;;;14.10;10.30;;;;;;;11.64;54.74;100174.34;5045869;28;20037;-80
2022/04/24 01:38:57;;;;;;;15.82;9.93;;;;;;;11.66;54.77;100175.25;5045861;28;20052;-80
2022/04/24 01:41:22;;;;;;;16.33;10.35;;;;;;;11.65;54.43;100183.94;5045684;28;20037;-80
2022/04/24 01:43:48;;;;;;;15.63;10.27;;;;;;;11.62;54.86;100184.78;5045756;28;20022;-81
2022/04/24 01:46:14;;;;;;;13.93;10.32;;;;;;;11.64;54.31;100182.19;5045708;28;20025;-80
2022/04/24 01:48:40;;;;;;;13.35;10.25;;;;;;;11.59;54.51;100182.16;5045506;28;20367;-80
2022/04/24 01:51:07;;;;;;;14.65;10.20;;;;;;;11.56;54.46;100178.66;5045448;28;20029;-80
2022/04/24 01:53:33;;;;;;;15.10;10.43;;;;;;;11.54;54.65;100177.75;5045775;28;20076;-80
2022/04/24 01:56:04;;;;;;;13.45;10.25;;;;;;;11.48;55.14;100176.84;5045375;28;20346;-80
2022/04/24 01:58:29;;;;;;;14.15;9.75;;;;;;;11.45;55.53;100175.94;5045403;28;20049;-85
2022/04/24 02:00:55;;;;;;;15.15;10.60;;;;;;;11.44;55.11;100179.41;5045392;28;20048;-85
2022/04/24 02:03:21;;;;;;;15.38;10.30;;;;;;;11.41;55.51;100176.75;5045629;28;20280;-85
2022/04/24 02:05:47;;;;;;;13.85;10.10;;;;;;;11.37;55.07;100174.97;5043970;28;20043;-86
2022/04/24 02:08:13;;;;;;;15.55;10.60;;;;;;;11.36;55.11;100175.88;5045242;28;20030;-86
2022/04/24 02:10:39;;;;;;;13.63;10.15;;;;;;;11.31;55.49;100174.09;5045192;28;20080;-85
2022/04/24 02:13:05;;;;;;;13.55;9.90;;;;;;;11.29;55.13;100178.38;5044725;28;20053;-85
2022/04/24 02:15:31;;;;;;;13.43;10.05;;;;;;;11.27;54.94;100180.13;5043499;28;20039;-85
2022/04/24 02:17:56;;;;;;;14.07;10.25;;;;;;;11.28;55.30;100178.38;5044703;28;20030;-85
2022/04/24 02:20:22;;;;;;;14.13;10.23;;;;;;;11.26;55.55;100180.97;5044785;28;20053;-84
2022/04/24 02:22:49;;;;;;;14.77;10.63;;;;;;;11.25;55.87;100179.25;5043971;28;20037;-85
2022/04/24 02:25:15;;;;;;;16.67;10.63;;;;;;;11.26;55.62;100178.38;5044778;28;20104;-85
2022/04/24 02:27:41;;;;;;;13.60;10.32;;;;;;;11.25;55.71;100181.84;5045156;28;20130;-80
2022/04/24 02:30:07;;;;;;;15.32;10.25;;;;;;;11.24;55.76;100177.50;5044886;28;20104;-80
2022/04/24 02:32:32;;;;;;;13.63;9.95;;;;;;;11.22;55.93;100173.09;5044760;28;20025;-80
2022/04/24 02:34:57;;;;;;;14.23;10.38;;;;;;;11.20;55.59;100173.09;5044695;28;20025;-80
2022/04/24 02:37:22;;;;;;;15.88;11.00;;;;;;;11.19;56.05;100173.09;5044665;28;20308;-80
2022/04/24 02:39:48;;;;;;;15.75;11.05;;;;;;;11.16;55.86;100173.06;5044963;28;20036;-80
2022/04/24 02:42:13;;;;;;;15.30;10.82;;;;;;;11.16;56.37;100179.13;5042865;28;20022;-80
2022/04/24 02:44:39;;;;;;;14.20;10.60;;;;;;;11.12;56.63;100177.34;5043513;28;20029;-80
2022/04/24 02:47:04;;;;;;;14.43;11.05;;;;;;;11.11;56.60;100180.84;5044545;28;20075;-80
2022/04/24 02:49:29;;;;;;;17.70;11.95;;;;;;;11.09;56.63;100174.72;5044511;28;20067;-80
2022/04/24 02:51:55;;;;;;;18.25;11.65;;;;;;;11.08;56.59;100175.56;5044442;28;20191;-80
2022/04/24 02:54:20;;;;;;;16.13;11.20;;;;;;;11.05;57.06;100175.53;5042816;28;20041;-80
2022/04/24 02:56:45;;;;;;;17.05;11.45;;;;;;;11.05;56.53;100181.63;5044285;28;20148;-80
2022/04/24 02:59:11;;;;;;;15.50;11.00;;;;;;;11.08;56.49;100178.16;5044153;28;20295;-80
2022/04/24 03:01:37;;;;;;;15.43;11.85;;;;;;;11.09;56.67;100186.03;5044308;28;20092;-80
2022/04/24 03:04:03;;;;;;;15.82;11.23;;;;;;;11.11;56.56;100191.25;5043945;28;20029;-80
2022/04/24 03:06:28;;;;;;;15.85;11.77;;;;;;;11.08;56.41;100184.28;5043898;28;20326;-80
2022/04/24 03:08:53;;;;;;;17.52;11.88;;;;;;;11.08;56.73;100191.19;5042813;28;20275;-80
2022/04/24 03:11:19;;;;;;;15.73;12.25;;;;;;;11.09;56.41;100186.03;5043921;28;20097;-80
2022/04/24 03:13:44;;;;;;;14.95;11.77;;;;;;;11.07;56.48;100192.94;5043801;28;20049;-80
2022/04/24 03:16:09;;;;;;;16.00;11.55;;;;;;;11.05;56.39;100194.69;5044166;28;20032;-80
2022/04/24 03:18:35;;;;;;;17.83;12.05;;;;;;;11.02;56.55;100185.94;5042661;28;20030;-80
2022/04/24 03:21:00;;;;;;;16.73;12.07;;;;;;;10.99;56.73;100191.97;5043796;28;20021;-80
2022/04/24 03:23:26;;;;;;;17.00;12.43;;;;;;;10.92;56.94;100198.88;5043836;28;20173;-81
2022/04/24 03:25:51;;;;;;;17.65;12.40;;;;;;;10.84;56.91;100187.47;5043730;28;20025;-81
2022/04/24 03:28:17;;;;;;;16.60;12.70;;;;;;;10.81;57.11;100191.78;5043494;28;20232;-85
2022/04/24 03:30:43;;;;;;;16.83;12.65;;;;;;;10.77;57.30;100191.72;5043381;28;20306;-86
2022/04/24 03:33:08;;;;;;;15.82;12.13;;;;;;;10.71;57.45;100190.78;5043243;28;20272;-86
2022/04/24 03:35:34;;;;;;;16.40;12.05;;;;;;;10.69;57.28;100187.28;5043365;28;20041;-86
2022/04/24 03:38:00;;;;;;;17.27;12.98;;;;;;;10.63;57.59;100190.69;5043436;28;20044;-87
2022/04/24 03:40:25;;;;;;;16.75;12.88;;;;;;;10.56;58.07;100194.09;5042171;28;20248;-86
2022/04/24 03:42:50;;;;;;;17.17;12.75;;;;;;;10.56;58.19;100192.34;5043491;28;20316;-87
2022/04/24 03:45:16;;;;;;;18.65;12.80;;;;;;;10.52;58.16;100195.75;5043237;28;20048;-86
2022/04/24 03:47:41;;;;;;;18.73;12.35;;;;;;;10.50;58.33;100192.28;5043476;28;20057;-86
2022/04/24 03:50:07;;;;;;;16.42;12.10;;;;;;;10.47;58.35;100192.22;5043178;28;20025;-87
2022/04/24 03:52:33;;;;;;;18.35;12.60;;;;;;;10.43;58.78;100185.22;5042831;28;20381;-87
2022/04/24 03:54:58;;;;;;;17.02;12.70;;;;;;;10.42;58.60;100186.94;5042899;28;20033;-87
2022/04/24 03:57:24;;;;;;;17.20;12.75;;;;;;;10.39;59.00;100191.25;5043049;28;20021;-87
2022/04/24 03:59:50;;;;;;;16.75;12.10;;;;;;;10.35;58.98;100197.25;5043061;28;20030;-87
2022/04/24 04:02:15;;;;;;;17.63;12.75;;;;;;;10.33;59.13;100198.94;5041745;28;20271;-85
2022/04/24 04:04:40;;;;;;;17.70;12.80;;;;;;;10.25;58.95;100181.50;5042842;28;20029;-86
2022/04/24 04:07:06;;;;;;;18.00;13.40;;;;;;;10.20;59.25;100192.69;5042597;28;20056;-87
2022/04/24 04:09:31;;;;;;;17.38;12.77;;;;;;;10.16;59.69;100193.50;5043216;28;20183;-87
2022/04/24 04:11:57;;;;;;;18.02;12.50;;;;;;;10.13;59.80;100196.06;5042501;28;20093;-87
2022/04/24 04:14:22;;;;;;;17.50;13.00;;;;;;;10.10;59.94;100202.09;5042699;28;20031;-87
2022/04/24 04:16:49;;;;;;;18.33;12.50;;;;;;;10.08;60.09;100196.00;5042618;28;20089;-86
2022/04/24 04:19:14;;;;;;;16.92;12.13;;;;;;;10.05;60.34;100194.22;5042755;28;20089;-87
2022/04/24 04:21:40;;;;;;;18.35;12.68;;;;;;;10.03;60.41;100200.22;5042590;28;20175;-86
2022/04/24 04:24:08;;;;;;;17.20;12.65;;;;;;;10.02;60.60;100206.28;5042765;28;20108;-87
2022/04/24 04:26:33;;;;;;;16.60;11.80;;;;;;;9.96;60.90;100204.47;5042730;28;20089;-87
2022/04/24 04:28:58;;;;;;;19.50;12.55;;;;;;;9.95;60.90;100202.72;5042635;28;20037;-86
2022/04/24 04:31:24;;;;;;;15.93;12.18;;;;;;;9.92;61.15;100210.47;5042457;28;20020;-86
2022/04/24 04:33:49;;;;;;;18.02;12.52;;;;;;;9.90;61.28;100215.66;5041246;28;20227;-86
2022/04/24 04:36:14;;;;;;;16.33;11.88;;;;;;;9.88;61.48;100216.50;5042244;28;20056;-86
2022/04/24 04:38:39;;;;;;;19.08;12.82;;;;;;;9.88;61.20;100216.50;5042601;28;20030;-86
2022/04/24 04:41:05;;;;;;;16.50;12.40;;;;;;;9.85;61.57;100213.84;5042715;28;20025;-87
2022/04/24 04:43:31;;;;;;;18.45;11.90;;;;;;;9.85;61.52;100213.84;5042330;28;20057;-87
2022/04/24 04:45:56;;;;;;;16.30;12.25;;;;;;;9.83;61.67;100224.19;5042590;28;20029;-87
2022/04/24 04:48:22;;;;;;;16.95;11.60;;;;;;;9.81;62.02;100225.03;5042638;28;20217;-87
2022/04/24 04:50:47;;;;;;;19.85;11.95;;;;;;;9.75;62.13;100224.09;5042130;28;20093;-86
2022/04/24 04:53:12;;;;;;;17.10;12.32;;;;;;;9.75;62.30;100226.69;5042177;28;20064;-86
2022/04/24 04:55:38;;;;;;;16.55;11.38;;;;;;;9.73;62.34;100219.69;5042286;28;20028;-86
2022/04/24 04:58:03;;;;;;;16.50;11.65;;;;;;;9.70;62.81;100236.16;5042267;28;20315;-86
2022/04/24 05:00:29;;;;;;;15.55;11.13;;;;;;;9.67;63.08;100230.00;5042369;28;20026;-87
2022/04/24 05:02:54;;;;;;;17.23;11.75;;;;;;;9.65;63.08;100231.72;5040715;28;20048;-87
2022/04/24 05:05:19;;;;;;;15.70;11.23;;;;;;;9.65;63.03;100234.31;5032697;28;20084;-87
2022/04/24 05:07:45;;;;;;;17.15;11.63;;;;;;;9.63;63.49;100238.59;5045123;28;20056;-87
2022/04/24 05:10:11;;;;;;;17.45;10.77;;;;;;;9.61;63.61;100243.78;5046332;28;20021;-86
2022/04/24 05:12:36;;;;;;;16.98;11.65;;;;;;;9.63;63.49;100238.59;5046452;28;20041;-87
2022/04/24 05:15:05;;;;;;;16.63;11.25;;;;;;;9.65;63.63;100249.94;5032612;28;20276;-86
2022/04/24 05:17:30;;;;;;;16.00;11.63;;;;;;;9.66;63.68;100252.56;5046212;28;20096;-87
2022/04/24 05:19:55;;;;;;;16.77;11.75;;;;;;;9.65;63.74;100250.78;5045712;28;20026;-86
2022/04/24 05:22:22;;;;;;;15.48;10.75;;;;;;;9.66;63.55;100251.66;5046227;28;20036;-86
2022/04/24 05:24:47;;;;;;;16.20;11.60;;;;;;;9.68;63.57;100262.97;5044730;28;20017;-86
2022/04/24 05:27:12;;;;;;;16.67;11.43;;;;;;;9.70;63.25;100253.47;5046202;28;20037;-87
2022/04/24 05:29:37;;;;;;;16.77;11.32;;;;;;;9.71;63.92;100260.44;5046044;28;20145;-87
2022/04/24 05:32:03;;;;;;;19.40;11.60;;;;;;;9.70;63.54;100259.56;5046155;28;20057;-86
2022/04/24 05:34:28;;;;;;;15.32;10.75;;;;;;;9.70;63.80;100256.06;5046023;28;20072;-85
2022/04/24 05:36:54;;;;;;;16.13;10.52;;;;;;;9.71;63.87;100261.28;5045804;28;20056;-81
2022/04/24 05:39:19;;;;;;;15.30;10.98;;;;;;;9.74;63.58;100263.09;5044565;28;20104;-81
2022/04/24 05:41:45;;;;;;;13.90;10.35;;;;;;;9.74;64.08;100266.53;5045834;28;20306;-81
2022/04/24 05:44:10;;;;;;;14.20;10.65;;;;;;;9.78;63.73;100261.44;5045428;28;20025;-81
2022/04/24 05:46:35;;;;;;;15.07;10.57;;;;;;;9.79;63.85;100265.75;5045564;28;20017;-81
2022/04/24 05:49:02;;;;;;;15.88;10.50;;;;;;;9.80;63.92;100270.13;5045518;28;20106;-81
2022/04/24 05:51:28;;;;;;;16.23;11.18;;;;;;;9.78;63.77;100272.69;5045498;28;20026;-81
2022/04/24 05:53:53;;;;;;;14.95;10.73;;;;;;;9.82;63.88;100273.63;5045554;28;20183;-81
2022/04/24 05:56:19;;;;;;;15.52;10.63;;;;;;;9.82;63.42;100264.09;5045355;28;20033;-81
2022/04/24 05:58:44;;;;;;;14.30;10.38;;;;;;;9.89;63.47;100268.56;5045467;28;20028;-81
2022/04/24 06:01:09;;;;;;;15.82;10.70;;;;;;;9.92;63.08;100272.91;5045244;28;20085;-81
2022/04/24 06:03:38;;;;;;;15.95;10.68;;;;;;;9.97;62.81;100273.03;5045828;28;20022;-81
2022/04/24 06:06:03;;;;;;;17.53;11.00;;;;;;;9.99;62.93;100273.91;5045368;28;20033;-81
2022/04/24 06:08:28;;;;;;;15.88;10.40;;;;;;;10.03;62.96;100273.97;5045084;28;20036;-87
2022/04/24 06:10:54;;;;;;;14.80;10.52;;;;;;;10.06;62.85;100279.22;5044997;28;20180;-86
2022/04/24 06:13:20;;;;;;;15.63;10.60;;;;;;;10.10;63.21;100287.97;5044787;28;20041;-86
2022/04/24 06:15:46;;;;;;;15.75;10.43;;;;;;;10.14;62.39;100281.97;5044845;28;20222;-86
2022/04/24 06:18:11;;;;;;;15.23;10.30;;;;;;;10.18;63.03;100288.09;5044846;28;20314;-86
2022/04/24 06:20:37;;;;;;;15.70;10.43;;;;;;;10.22;62.63;100282.97;5044647;28;20089;-87
2022/04/24 06:23:02;;;;;;;15.45;10.55;;;;;;;10.30;63.10;100287.41;5044834;28;20034;-87
2022/04/24 06:25:31;;;;;;;16.77;10.73;;;;;;;11.18;61.46;100276.53;5044811;28;20181;-87
2022/04/24 06:27:56;;;;;;;14.45;9.70;;;;;;;14.67;51.63;100269.50;5044798;28;20029;-86
2022/04/24 06:30:24;;;;;;;13.65;9.68;;;;;;;18.08;42.91;100271.66;5044590;28;20313;-87
2022/04/24 06:32:49;;;;;;;13.35;8.90;;;;;;;20.81;37.16;100272.72;5031109;28;20026;-86
2022/04/24 06:35:16;;;;;;;12.93;9.32;;;;;;;22.94;32.85;100271.22;5044343;28;20235;-86
2022/04/24 06:37:46;;;;;;;15.45;10.18;;;;;;;24.55;29.38;100273.72;5043293;28;20318;-87
2022/04/24 06:40:13;;;;;;;12.98;9.80;;;;;;;26.08;26.65;100274.63;5044559;28;20029;-86
2022/04/24 06:42:50;;;;;;;14.88;10.32;;;;;;;25.91;29.01;100270.13;5043183;28;20027;-85
2022/04/24 06:45:17;;;;;;;13.63;10.27;;;;;;;23.79;29.43;100278.63;5044205;28;20048;-86
2022/04/24 06:47:43;;;;;;;13.23;10.13;;;;;;;21.87;31.94;100279.31;5044154;28;20033;-86
2022/04/24 06:50:09;;;;;;;16.40;11.25;;;;;;;20.15;34.44;100283.28;5044838;28;20153;-85
2022/04/24 06:52:34;;;;;;;18.08;11.27;;;;;;;18.84;36.83;100286.09;5044263;28;20018;-85
2022/04/24 06:55:00;;;;;;;17.25;11.90;;;;;;;17.77;39.59;100292.31;5042937;28;20176;-85
2022/04/24 06:57:26;;;;;;;17.15;12.02;;;;;;;16.86;41.59;100287.31;5044183;28;20092;-85
2022/04/24 06:59:51;;;;;;;19.58;12.18;;;;;;;16.19;43.21;100301.13;5043062;28;20026;-85
2022/04/24 07:02:16;;;;;;;19.52;13.05;;;;;;;15.64;44.91;100290.06;5042821;28;20029;-85
2022/04/24 07:04:41;;;;;;;20.38;13.02;;;;;;;15.26;45.34;100285.91;5044341;28;20021;-85
2022/04/24 07:07:07;;;;;;;19.73;13.27;;;;;;;14.94;47.53;100285.16;5044091;28;20049;-80
2022/04/24 07:09:32;;;;;;;20.08;12.75;;;;;;;14.74;47.09;100281.72;5044163;28;20013;-80
2022/04/24 07:11:57;;;;;;;22.08;13.50;;;;;;;14.57;48.34;100297.47;5043761;28;20297;-80
2022/04/24 07:14:23;;;;;;;19.63;12.90;;;;;;;14.42;49.29;100295.75;5042850;28;20048;-80
2022/04/24 07:16:48;;;;;;;19.42;13.23;;;;;;;14.30;48.29;100291.38;5043048;28;20029;-80
2022/04/24 07:19:14;;;;;;;21.38;13.40;;;;;;;14.16;50.20;100290.53;5043748;28;20184;-80
2022/04/24 07:21:39;;;;;;;20.33;13.15;;;;;;;14.09;49.93;100298.38;5042264;28;20287;-81
2022/04/24 07:24:05;;;;;;;19.63;12.55;;;;;;;14.00;49.23;100300.97;5043736;28;20018;-81
2022/04/24 07:26:30;;;;;;;21.05;13.63;;;;;;;13.96;49.93;100296.63;5041703;28;20025;-80
2022/04/24 07:28:55;;;;;;;21.92;13.63;;;;;;;13.92;50.29;100302.75;5043165;28;20096;-80
2022/04/24 07:31:21;;;;;;;20.38;13.68;;;;;;;13.90;50.76;100297.50;5043269;28;20275;-80
2022/04/24 07:33:46;;;;;;;20.88;13.52;;;;;;;13.88;50.25;100312.31;5043040;28;20017;-80
2022/04/24 07:36:11;;;;;;;18.83;13.68;;;;;;;13.92;50.91;100305.38;5043658;28;20032;-81
2022/04/24 07:38:37;;;;;;;18.85;12.73;;;;;;;13.97;51.48;100303.59;5043711;28;20021;-80
2022/04/24 07:41:03;;;;;;;22.83;13.55;;;;;;;14.00;50.70;100300.97;5043718;28;20021;-80
2022/04/24 07:43:29;;;;;;;21.15;14.13;;;;;;;14.06;51.02;100305.34;5043545;28;20026;-80
2022/04/24 07:45:54;;;;;;;20.05;13.18;;;;;;;14.07;50.16;100305.34;5043524;28;20056;-80
2022/04/24 07:48:20;;;;;;;20.52;14.07;;;;;;;14.11;50.81;100307.97;5042233;28;20033;-80
2022/04/24 07:50:49;;;;;;;19.38;13.88;;;;;;;14.17;50.60;100310.63;5043565;28;20021;-80
2022/04/24 07:53:16;;;;;;;;;;;;;;;14.24;50.60;100312.38;5043763;28;20067;-80
2022/04/24 07:55:43;;;;;;;22.80;13.82;;;;;;;14.22;50.29;100312.38;5043301;28;19905;-80
2022/04/24 07:58:09;;;;;;;19.70;13.05;;;;;;;14.25;49.63;100316.72;5043293;28;20072;-80
2022/04/24 08:00:34;;;;;;;21.20;14.05;;;;;;;14.30;50.38;100320.22;5043176;28;20029;-80
2022/04/24 08:03:08;;;;;;;21.73;14.40;;;;;;;14.34;51.24;100316.72;5043272;28;20025;-80
2022/04/24 08:05:36;;;;;;;23.25;14.27;;;;;;;14.39;50.41;100314.97;5043182;28;20268;-80
2022/04/24 08:08:03;;;;;;;20.70;13.73;;;;;;;14.43;50.19;100314.09;5043136;28;20258;-81
2022/04/24 08:10:31;;;;;;;19.30;13.98;;;;;;;14.48;49.26;100310.59;5043186;28;20025;-81
2022/04/24 08:12:57;;;;;;;19.95;13.23;;;;;;;14.53;50.60;100316.72;5042815;28;20040;-81
2022/04/24 08:15:23;;;;;;;24.98;14.85;;;;;;;14.59;49.95;100321.94;5041440;28;20104;-81
2022/04/24 08:17:48;;;;;;;21.17;14.43;;;;;;;14.65;49.16;100324.59;5039682;28;20025;-81
2022/04/24 08:20:15;;;;;;;21.75;14.27;;;;;;;14.72;48.38;100318.44;5039932;28;20039;-81
2022/04/24 08:22:46;;;;;;;20.00;14.30;;;;;;;14.78;48.78;100321.06;5040932;28;20029;-81
2022/04/24 08:25:13;;;;;;;21.50;14.20;;;;;;;14.84;49.24;100309.69;5037768;28;20025;-81
2022/04/24 08:27:39;;;;;;;21.35;14.18;;;;;;;14.89;48.16;100314.94;5035586;28;20021;-81
2022/04/24 08:30:07;;;;;;;23.55;15.27;;;;;;;14.98;49.67;100320.16;5041490;28;20056;-81
2022/04/24 08:32:33;;;;;;;20.60;14.05;;;;;;;15.06;49.51;100322.72;5042246;28;20030;-81
2022/04/24 08:34:58;;;;;;;20.10;14.02;;;;;;;15.15;50.15;100319.22;5040687;28;20021;-81
2022/04/24 08:37:24;;;;;;;22.58;14.43;;;;;;;15.23;47.84;100333.19;5041940;28;20034;-86
2022/04/24 08:39:51;;;;;;;23.88;14.25;;;;;;;15.27;47.85;100317.41;5039367;28;20017;-86
2022/04/24 08:42:19;;;;;;;21.83;14.68;;;;;;;15.33;47.12;100316.50;5041975;28;20128;-87
2022/04/24 08:44:51;;;;;;;22.05;14.85;;;;;;;15.40;48.67;100322.63;5041077;28;20278;-86
2022/04/24 08:47:19;;;;;;;23.48;14.75;;;;;;;15.43;47.69;100323.47;5040333;28;20023;-85
2022/04/24 08:49:45;;;;;;;26.17;15.70;;;;;;;15.51;46.58;100319.91;5041815;28;20030;-86
2022/04/24 08:52:12;;;;;;;21.85;15.07;;;;;;;15.58;47.99;100316.38;5042207;28;20045;-86
2022/04/24 08:54:41;;;;;;;26.33;15.98;;;;;;;15.61;46.00;100317.25;5039565;28;20025;-87
2022/04/24 08:57:10;;;;;;;24.05;15.38;;;;;;;15.67;48.20;100318.97;5041126;28;20084;-86
2022/04/24 08:59:38;;;;;;;23.52;15.25;;;;;;;15.77;47.82;100330.28;5041044;28;20028;-85
2022/04/24 09:02:05;;;;;;;23.60;15.43;;;;;;;15.84;47.47;100325.91;5039575;28;20021;-85
2022/04/24 09:04:32;;;;;;;23.92;15.63;;;;;;;15.91;47.18;100330.22;5041493;28;20053;-85
2022/04/24 09:06:58;;;;;;;26.15;16.17;;;;;;;15.99;46.81;100320.56;5042206;28;20196;-80
2022/04/24 09:09:24;;;;;;;24.33;15.57;;;;;;;16.08;47.57;100331.00;5042056;28;20163;-80
2022/04/24 09:11:50;;;;;;;25.27;15.50;;;;;;;16.17;46.52;100330.03;5041991;28;20105;-80
2022/04/24 09:14:15;;;;;;;25.42;15.27;;;;;;;16.26;45.24;100331.72;5042362;28;20021;-80
2022/04/24 09:16:53;;;;;;;24.70;16.35;;;;;;;16.29;46.07;100335.22;5042306;28;20033;-80
2022/04/24 09:19:20;;;;;;;25.00;16.85;;;;;;;16.35;46.21;100331.63;5042185;28;20033;-80
2022/04/24 09:21:50;;;;;;;25.52;16.17;;;;;;;16.40;46.44;100335.13;5041068;28;20037;-80
2022/04/24 09:24:16;;;;;;;23.35;15.85;;;;;;;16.47;45.25;100333.31;5041923;28;20088;-80
2022/04/24 09:27:09;;;;;;;24.13;16.08;;;;;;;16.56;47.38;100321.84;5041645;28;20017;-80
2022/04/24 09:29:35;;;;;;;26.08;17.23;;;;;;;16.63;46.87;100328.78;5040221;28;20060;-80
2022/04/24 09:32:01;;;;;;;25.33;16.38;;;;;;;16.64;46.30;100331.41;5042072;28;20014;-80
2022/04/24 09:34:31;;;;;;;25.42;16.70;;;;;;;16.70;47.20;100335.72;5041968;28;20033;-80
2022/04/24 09:37:01;;;;;;;28.45;17.17;;;;;;;16.80;45.20;100326.84;5042052;28;20045;-80
2022/04/24 09:39:28;;;;;;;26.92;16.50;;;;;;;16.88;44.91;100326.78;5040762;28;20026;-80
2022/04/24 09:42:11;;;;;;;32.17;17.90;;;;;;;16.93;44.46;100326.72;5042191;28;20044;-79
2022/04/24 09:44:43;;;;;;;29.20;17.38;;;;;;;16.93;43.17;100332.00;5041707;28;20037;-79
2022/04/24 09:47:09;;;;;;;29.38;16.92;;;;;;;16.98;44.88;100327.56;5040664;28;20114;-79
2022/04/24 09:49:37;;;;;;;27.25;17.08;;;;;;;17.04;43.74;100333.63;5040691;28;20274;-79
2022/04/24 09:52:12;;;;;;;27.60;17.35;;;;;;;17.11;44.75;100334.44;5045112;28;20022;-79
2022/04/24 09:54:39;;;;;;;29.48;17.63;;;;;;;17.21;45.33;100333.44;5045519;28;20035;-79
2022/04/24 09:57:06;;;;;;;28.10;17.95;;;;;;;17.30;44.70;100328.94;5045672;28;20037;-80
2022/04/24 09:59:34;;;;;;;30.13;17.63;;;;;;;17.34;44.76;100336.78;5045447;28;20183;-80
2022/04/24 10:02:00;;;;;;;29.58;18.83;;;;;;;17.44;44.03;100334.91;5044197;28;20018;-80
2022/04/24 10:04:26;;;;;;;29.35;18.17;;;;;;;17.50;43.55;100331.34;5045580;28;20144;-80
2022/04/24 10:06:52;;;;;;;28.23;18.15;;;;;;;17.53;44.76;100329.50;5045505;28;20268;-80
2022/04/24 10:09:18;;;;;;;28.83;18.42;;;;;;;17.61;44.11;100331.19;5045284;28;20025;-80
2022/04/24 10:11:43;;;;;;;28.40;18.42;;;;;;;17.65;43.65;100330.25;5045152;28;20022;-80
2022/04/24 10:14:14;;;;;;;32.10;19.17;;;;;;;17.70;43.68;100341.59;5045336;28;20097;-80
2022/04/24 10:16:59;;;;;;;31.90;18.23;;;;;;;17.72;42.96;100324.00;5045156;28;20025;-80
2022/04/24 10:19:39;;;;;;;32.22;20.85;;;;;;;17.69;43.57;100331.94;5043710;28;20039;-79
2022/04/24 10:22:25;;;;;;;32.20;19.63;;;;;;;17.73;42.97;100336.28;5044831;28;20089;-79
2022/04/24 10:25:02;;;;;;;32.08;19.90;;;;;;;17.76;41.97;100327.47;5044951;28;20049;-79
2022/04/24 10:27:42;;;;;;;29.02;18.92;;;;;;;17.71;41.86;100324.88;5044781;28;20024;-79
2022/04/24 10:30:12;;;;;;;31.02;18.65;;;;;;;17.73;43.05;100334.50;5044835;28;20045;-80
2022/04/24 10:32:37;;;;;;;30.02;17.65;;;;;;;17.80;44.01;100330.03;5044668;28;20052;-80
2022/04/24 10:35:15;;;;;;;28.63;17.38;;;;;;;17.90;44.14;100336.94;5044637;28;20041;-80
2022/04/24 10:37:40;;;;;;;30.48;18.05;;;;;;;18.02;42.24;100325.34;5043536;28;20078;-84
2022/04/24 10:40:12;;;;;;;26.92;17.45;;;;;;;18.13;45.09;100332.22;5044941;28;20041;-85
2022/04/24 10:42:38;;;;;;;26.20;16.83;;;;;;;18.22;42.25;100335.56;5043529;28;20036;-86
2022/04/24 10:45:12;;;;;;;27.85;18.27;;;;;;;18.27;41.09;100334.63;5044491;28;20025;-86
2022/04/24 10:47:42;;;;;;;29.08;17.33;;;;;;;18.33;41.41;100345.06;5043419;28;20024;-86
2022/04/24 10:50:09;;;;;;;26.08;17.40;;;;;;;18.37;41.15;100341.50;5044249;28;20013;-86
2022/04/24 10:52:44;;;;;;;34.70;18.52;;;;;;;18.41;40.62;100337.91;5044544;28;20025;-85
2022/04/24 10:55:12;;;;;;;26.20;16.38;;;;;;;18.48;42.24;100333.38;5044104;28;20088;-85
2022/04/24 10:57:46;;;;;;;25.27;16.33;;;;;;;18.53;40.84;100332.41;5044051;28;20335;-86
2022/04/24 11:00:26;;;;;;;25.70;15.50;;;;;;;18.60;41.34;100339.31;5043700;28;20041;-86
2022/04/24 11:02:52;;;;;;;26.15;16.75;;;;;;;18.57;38.17;100342.00;5042492;28;20238;-86
2022/04/24 11:05:22;;;;;;;26.98;16.88;;;;;;;18.54;40.17;100336.78;5042849;28;20025;-87
2022/04/24 11:07:48;;;;;;;28.33;16.77;;;;;;;18.57;39.90;100338.53;5043252;28;20075;-80
2022/04/24 11:10:20;;;;;;;28.40;16.83;;;;;;;18.62;40.79;100336.66;5041898;28;20021;-80